sensor_id;sensor_type;location;lat;lon;timestamp;temperature;humidity
72106;SHT30;59975;47.646;18.318;2023-05-07T00:01:36;13.34;96.71
72106;SHT30;59975;47.646;18.318;2023-05-07T00:04:01;13.31;96.77
72106;SHT30;59975;47.646;18.318;2023-05-07T00:06:29;13.27;96.76
72106;SHT30;59975;47.646;18.318;2023-05-07T00:08:56;13.21;96.78
72106;SHT30;59975;47.646;18.318;2023-05-07T00:11:21;13.16;96.84
72106;SHT30;59975;47.646;18.318;2023-05-07T00:13:48;13.10;96.93
72106;SHT30;59975;47.646;18.318;2023-05-07T00:16:13;13.10;96.88
72106;SHT30;59975;47.646;18.318;2023-05-07T00:18:39;13.04;96.97
72106;SHT30;59975;47.646;18.318;2023-05-07T00:21:05;13.06;97.06
72106;SHT30;59975;47.646;18.318;2023-05-07T00:23:30;13.07;97.02
72106;SHT30;59975;47.646;18.318;2023-05-07T00:25:56;13.04;96.98
72106;SHT30;59975;47.646;18.318;2023-05-07T00:28:21;13.10;97.02
72106;SHT30;59975;47.646;18.318;2023-05-07T00:30:47;13.04;97.05
72106;SHT30;59975;47.646;18.318;2023-05-07T00:33:12;13.03;96.97
72106;SHT30;59975;47.646;18.318;2023-05-07T00:35:38;13.03;97.05
72106;SHT30;59975;47.646;18.318;2023-05-07T00:38:03;13.03;96.99
72106;SHT30;59975;47.646;18.318;2023-05-07T00:40:29;13.04;97.02
72106;SHT30;59975;47.646;18.318;2023-05-07T00:42:55;13.11;96.98
72106;SHT30;59975;47.646;18.318;2023-05-07T00:45:27;13.04;97.08
72106;SHT30;59975;47.646;18.318;2023-05-07T00:47:58;13.08;97.18
72106;SHT30;59975;47.646;18.318;2023-05-07T00:50:25;13.13;97.20
72106;SHT30;59975;47.646;18.318;2023-05-07T00:52:51;13.13;97.28
72106;SHT30;59975;47.646;18.318;2023-05-07T00:55:17;13.21;97.34
72106;SHT30;59975;47.646;18.318;2023-05-07T00:57:43;13.26;97.23
72106;SHT30;59975;47.646;18.318;2023-05-07T01:00:10;13.33;97.09
72106;SHT30;59975;47.646;18.318;2023-05-07T01:02:41;13.26;97.19
72106;SHT30;59975;47.646;18.318;2023-05-07T01:05:09;13.26;97.24
72106;SHT30;59975;47.646;18.318;2023-05-07T01:07:35;13.28;97.23
72106;SHT30;59975;47.646;18.318;2023-05-07T01:10:03;13.31;97.13
72106;SHT30;59975;47.646;18.318;2023-05-07T01:12:29;13.26;97.09
72106;SHT30;59975;47.646;18.318;2023-05-07T01:14:56;13.28;96.96
72106;SHT30;59975;47.646;18.318;2023-05-07T01:17:22;13.26;96.84
72106;SHT30;59975;47.646;18.318;2023-05-07T01:19:48;13.21;96.94
72106;SHT30;59975;47.646;18.318;2023-05-07T01:22:16;13.20;96.90
72106;SHT30;59975;47.646;18.318;2023-05-07T01:24:43;13.20;96.81
72106;SHT30;59975;47.646;18.318;2023-05-07T01:27:09;13.18;96.62
72106;SHT30;59975;47.646;18.318;2023-05-07T01:29:34;13.08;96.74
72106;SHT30;59975;47.646;18.318;2023-05-07T01:32:00;13.04;96.87
72106;SHT30;59975;47.646;18.318;2023-05-07T01:34:31;13.06;96.85
72106;SHT30;59975;47.646;18.318;2023-05-07T01:36:58;13.03;96.92
72106;SHT30;59975;47.646;18.318;2023-05-07T01:39:26;13.07;96.87
72106;SHT30;59975;47.646;18.318;2023-05-07T01:41:54;13.07;96.90
72106;SHT30;59975;47.646;18.318;2023-05-07T01:44:21;13.06;96.83
72106;SHT30;59975;47.646;18.318;2023-05-07T01:46:47;13.02;96.85
72106;SHT30;59975;47.646;18.318;2023-05-07T01:49:14;12.85;96.88
72106;SHT30;59975;47.646;18.318;2023-05-07T01:51:39;12.79;97.09
72106;SHT30;59975;47.646;18.318;2023-05-07T01:54:05;12.75;97.03
72106;SHT30;59975;47.646;18.318;2023-05-07T01:56:31;12.70;97.10
72106;SHT30;59975;47.646;18.318;2023-05-07T01:58:57;12.62;97.04
72106;SHT30;59975;47.646;18.318;2023-05-07T02:01:23;12.55;97.27
72106;SHT30;59975;47.646;18.318;2023-05-07T02:03:48;12.57;97.30
72106;SHT30;59975;47.646;18.318;2023-05-07T02:06:14;12.44;97.21
72106;SHT30;59975;47.646;18.318;2023-05-07T02:08:40;12.46;97.35
72106;SHT30;59975;47.646;18.318;2023-05-07T02:11:05;12.39;97.16
72106;SHT30;59975;47.646;18.318;2023-05-07T02:13:33;12.38;97.31
72106;SHT30;59975;47.646;18.318;2023-05-07T02:15:58;12.39;97.21
72106;SHT30;59975;47.646;18.318;2023-05-07T02:18:24;12.34;97.30
72106;SHT30;59975;47.646;18.318;2023-05-07T02:20:50;12.32;97.32
72106;SHT30;59975;47.646;18.318;2023-05-07T02:23:15;12.21;97.32
72106;SHT30;59975;47.646;18.318;2023-05-07T02:25:41;12.12;97.47
72106;SHT30;59975;47.646;18.318;2023-05-07T02:28:06;12.12;97.52
72106;SHT30;59975;47.646;18.318;2023-05-07T02:30:32;12.08;97.52
72106;SHT30;59975;47.646;18.318;2023-05-07T02:32:58;12.11;97.71
72106;SHT30;59975;47.646;18.318;2023-05-07T02:35:24;12.10;97.70
72106;SHT30;59975;47.646;18.318;2023-05-07T02:37:50;12.02;97.85
72106;SHT30;59975;47.646;18.318;2023-05-07T02:40:16;12.04;97.79
72106;SHT30;59975;47.646;18.318;2023-05-07T02:42:41;11.98;97.78
72106;SHT30;59975;47.646;18.318;2023-05-07T02:45:07;11.97;97.91
72106;SHT30;59975;47.646;18.318;2023-05-07T02:47:33;11.97;97.97
72106;SHT30;59975;47.646;18.318;2023-05-07T02:49:58;11.99;97.89
72106;SHT30;59975;47.646;18.318;2023-05-07T02:52:24;11.94;97.79
72106;SHT30;59975;47.646;18.318;2023-05-07T02:54:49;11.94;97.90
72106;SHT30;59975;47.646;18.318;2023-05-07T02:57:15;11.92;97.98
72106;SHT30;59975;47.646;18.318;2023-05-07T02:59:42;11.94;98.08
72106;SHT30;59975;47.646;18.318;2023-05-07T03:02:07;11.95;98.12
72106;SHT30;59975;47.646;18.318;2023-05-07T03:04:33;11.92;98.12
72106;SHT30;59975;47.646;18.318;2023-05-07T03:06:58;11.94;98.12
72106;SHT30;59975;47.646;18.318;2023-05-07T03:09:24;11.92;98.03
72106;SHT30;59975;47.646;18.318;2023-05-07T03:11:49;11.92;98.05
72106;SHT30;59975;47.646;18.318;2023-05-07T03:14:15;11.91;98.09
72106;SHT30;59975;47.646;18.318;2023-05-07T03:16:40;11.97;98.03
72106;SHT30;59975;47.646;18.318;2023-05-07T03:19:06;11.92;98.06
72106;SHT30;59975;47.646;18.318;2023-05-07T03:21:32;11.90;98.13
72106;SHT30;59975;47.646;18.318;2023-05-07T03:23:59;11.99;98.19
72106;SHT30;59975;47.646;18.318;2023-05-07T03:26:24;12.01;97.98
72106;SHT30;59975;47.646;18.318;2023-05-07T03:28:50;11.95;97.95
72106;SHT30;59975;47.646;18.318;2023-05-07T03:31:16;11.95;98.08
72106;SHT30;59975;47.646;18.318;2023-05-07T03:33:55;11.95;98.17
72106;SHT30;59975;47.646;18.318;2023-05-07T03:36:21;11.94;98.13
72106;SHT30;59975;47.646;18.318;2023-05-07T03:38:47;11.95;98.11
72106;SHT30;59975;47.646;18.318;2023-05-07T03:41:13;11.95;97.96
72106;SHT30;59975;47.646;18.318;2023-05-07T03:43:39;11.97;97.90
72106;SHT30;59975;47.646;18.318;2023-05-07T03:46:04;11.95;97.94
72106;SHT30;59975;47.646;18.318;2023-05-07T03:48:30;12.02;98.00
72106;SHT30;59975;47.646;18.318;2023-05-07T03:50:57;12.04;97.82
72106;SHT30;59975;47.646;18.318;2023-05-07T03:53:23;11.98;98.03
72106;SHT30;59975;47.646;18.318;2023-05-07T03:55:48;12.02;97.99
72106;SHT30;59975;47.646;18.318;2023-05-07T03:58:14;12.08;98.10
72106;SHT30;59975;47.646;18.318;2023-05-07T04:00:40;12.18;98.21
72106;SHT30;59975;47.646;18.318;2023-05-07T04:03:06;12.31;97.99
72106;SHT30;59975;47.646;18.318;2023-05-07T04:05:32;12.28;97.95
72106;SHT30;59975;47.646;18.318;2023-05-07T04:07:58;12.32;98.06
72106;SHT30;59975;47.646;18.318;2023-05-07T04:10:24;12.35;98.02
72106;SHT30;59975;47.646;18.318;2023-05-07T04:12:50;12.41;98.15
72106;SHT30;59975;47.646;18.318;2023-05-07T04:15:15;12.48;97.94
72106;SHT30;59975;47.646;18.318;2023-05-07T04:17:41;12.46;97.80
72106;SHT30;59975;47.646;18.318;2023-05-07T04:20:09;12.49;97.62
72106;SHT30;59975;47.646;18.318;2023-05-07T04:22:34;12.52;97.35
72106;SHT30;59975;47.646;18.318;2023-05-07T04:25:00;12.57;97.15
72106;SHT30;59975;47.646;18.318;2023-05-07T04:27:25;12.60;97.14
72106;SHT30;59975;47.646;18.318;2023-05-07T04:29:51;12.66;97.10
72106;SHT30;59975;47.646;18.318;2023-05-07T04:32:21;12.67;96.99
72106;SHT30;59975;47.646;18.318;2023-05-07T04:34:46;12.75;97.05
72106;SHT30;59975;47.646;18.318;2023-05-07T04:37:12;12.80;96.87
72106;SHT30;59975;47.646;18.318;2023-05-07T04:39:37;12.86;96.90
72106;SHT30;59975;47.646;18.318;2023-05-07T04:42:03;12.86;96.85
72106;SHT30;59975;47.646;18.318;2023-05-07T04:44:28;12.93;96.82
72106;SHT30;59975;47.646;18.318;2023-05-07T04:46:56;13.02;96.69
72106;SHT30;59975;47.646;18.318;2023-05-07T04:49:21;13.16;96.71
72106;SHT30;59975;47.646;18.318;2023-05-07T04:51:47;13.28;96.56
72106;SHT30;59975;47.646;18.318;2023-05-07T04:54:12;13.40;96.44
72106;SHT30;59975;47.646;18.318;2023-05-07T04:56:38;13.46;96.31
72106;SHT30;59975;47.646;18.318;2023-05-07T04:59:03;13.57;96.24
72106;SHT30;59975;47.646;18.318;2023-05-07T05:01:29;13.60;95.96
72106;SHT30;59975;47.646;18.318;2023-05-07T05:03:55;13.71;95.79
72106;SHT30;59975;47.646;18.318;2023-05-07T05:06:20;13.72;95.51
72106;SHT30;59975;47.646;18.318;2023-05-07T05:08:46;13.79;95.37
72106;SHT30;59975;47.646;18.318;2023-05-07T05:11:11;13.88;95.04
72106;SHT30;59975;47.646;18.318;2023-05-07T05:13:37;13.94;95.08
72106;SHT30;59975;47.646;18.318;2023-05-07T05:16:03;14.02;94.84
72106;SHT30;59975;47.646;18.318;2023-05-07T05:18:28;14.12;94.80
72106;SHT30;59975;47.646;18.318;2023-05-07T05:20:54;14.28;94.64
72106;SHT30;59975;47.646;18.318;2023-05-07T05:23:19;14.39;93.85
72106;SHT30;59975;47.646;18.318;2023-05-07T05:25:45;14.47;94.40
72106;SHT30;59975;47.646;18.318;2023-05-07T05:28:11;14.59;94.57
72106;SHT30;59975;47.646;18.318;2023-05-07T05:30:36;14.62;93.54
72106;SHT30;59975;47.646;18.318;2023-05-07T05:33:02;14.76;93.51
72106;SHT30;59975;47.646;18.318;2023-05-07T05:35:27;14.79;93.58
72106;SHT30;59975;47.646;18.318;2023-05-07T05:37:53;15.06;92.97
72106;SHT30;59975;47.646;18.318;2023-05-07T05:40:19;15.18;91.87
72106;SHT30;59975;47.646;18.318;2023-05-07T05:42:44;15.25;92.55
72106;SHT30;59975;47.646;18.318;2023-05-07T05:45:10;15.31;92.66
72106;SHT30;59975;47.646;18.318;2023-05-07T05:47:35;15.38;92.06
72106;SHT30;59975;47.646;18.318;2023-05-07T05:50:01;15.35;91.88
72106;SHT30;59975;47.646;18.318;2023-05-07T05:52:26;15.42;92.01
72106;SHT30;59975;47.646;18.318;2023-05-07T05:54:53;15.49;91.88
72106;SHT30;59975;47.646;18.318;2023-05-07T05:57:19;15.66;91.69
72106;SHT30;59975;47.646;18.318;2023-05-07T05:59:44;15.82;90.05
72106;SHT30;59975;47.646;18.318;2023-05-07T06:02:10;16.13;89.68
72106;SHT30;59975;47.646;18.318;2023-05-07T06:04:35;16.23;89.50
72106;SHT30;59975;47.646;18.318;2023-05-07T06:07:01;16.40;89.75
72106;SHT30;59975;47.646;18.318;2023-05-07T06:09:26;16.56;89.40
72106;SHT30;59975;47.646;18.318;2023-05-07T06:11:52;16.51;89.33
72106;SHT30;59975;47.646;18.318;2023-05-07T06:14:17;16.53;89.23
72106;SHT30;59975;47.646;18.318;2023-05-07T06:16:43;16.56;90.33
72106;SHT30;59975;47.646;18.318;2023-05-07T06:19:09;16.75;88.99
72106;SHT30;59975;47.646;18.318;2023-05-07T06:21:34;16.88;89.02
72106;SHT30;59975;47.646;18.318;2023-05-07T06:24:00;16.96;88.97
72106;SHT30;59975;47.646;18.318;2023-05-07T06:26:25;16.83;88.82
72106;SHT30;59975;47.646;18.318;2023-05-07T06:28:51;16.98;88.78
72106;SHT30;59975;47.646;18.318;2023-05-07T06:31:18;17.07;89.26
72106;SHT30;59975;47.646;18.318;2023-05-07T06:33:45;17.05;88.14
72106;SHT30;59975;47.646;18.318;2023-05-07T06:36:11;17.19;88.52
72106;SHT30;59975;47.646;18.318;2023-05-07T06:38:45;17.08;88.15
72106;SHT30;59975;47.646;18.318;2023-05-07T06:41:11;16.92;88.67
72106;SHT30;59975;47.646;18.318;2023-05-07T06:43:36;16.84;89.49
72106;SHT30;59975;47.646;18.318;2023-05-07T06:46:01;16.60;89.41
72106;SHT30;59975;47.646;18.318;2023-05-07T06:48:27;16.37;90.38
72106;SHT30;59975;47.646;18.318;2023-05-07T06:50:52;16.33;90.60
72106;SHT30;59975;47.646;18.318;2023-05-07T06:53:20;16.36;90.71
72106;SHT30;59975;47.646;18.318;2023-05-07T06:55:45;16.26;90.49
72106;SHT30;59975;47.646;18.318;2023-05-07T06:58:11;16.30;90.44
72106;SHT30;59975;47.646;18.318;2023-05-07T07:00:36;16.29;90.14
72106;SHT30;59975;47.646;18.318;2023-05-07T07:03:02;16.10;90.75
72106;SHT30;59975;47.646;18.318;2023-05-07T07:05:28;16.17;91.03
72106;SHT30;59975;47.646;18.318;2023-05-07T07:07:53;16.03;91.45
72106;SHT30;59975;47.646;18.318;2023-05-07T07:10:22;16.09;91.54
72106;SHT30;59975;47.646;18.318;2023-05-07T07:12:48;16.24;90.80
72106;SHT30;59975;47.646;18.318;2023-05-07T07:15:14;16.32;90.71
72106;SHT30;59975;47.646;18.318;2023-05-07T07:17:40;16.33;90.20
72106;SHT30;59975;47.646;18.318;2023-05-07T07:20:06;16.47;90.00
72106;SHT30;59975;47.646;18.318;2023-05-07T07:22:32;16.61;89.84
72106;SHT30;59975;47.646;18.318;2023-05-07T07:24:57;16.67;89.41
72106;SHT30;59975;47.646;18.318;2023-05-07T07:27:23;16.75;88.82
72106;SHT30;59975;47.646;18.318;2023-05-07T07:29:48;16.88;88.29
72106;SHT30;59975;47.646;18.318;2023-05-07T07:32:14;17.04;88.15
72106;SHT30;59975;47.646;18.318;2023-05-07T07:34:39;16.98;87.38
72106;SHT30;59975;47.646;18.318;2023-05-07T07:37:05;17.00;87.04
72106;SHT30;59975;47.646;18.318;2023-05-07T07:39:34;16.96;87.67
72106;SHT30;59975;47.646;18.318;2023-05-07T07:42:02;17.03;87.30
72106;SHT30;59975;47.646;18.318;2023-05-07T07:44:28;16.98;87.96
72106;SHT30;59975;47.646;18.318;2023-05-07T07:46:54;16.83;89.06
72106;SHT30;59975;47.646;18.318;2023-05-07T07:49:19;16.83;89.38
72106;SHT30;59975;47.646;18.318;2023-05-07T07:51:45;16.67;89.04
72106;SHT30;59975;47.646;18.318;2023-05-07T07:54:10;16.57;89.65
72106;SHT30;59975;47.646;18.318;2023-05-07T07:56:36;16.40;90.07
72106;SHT30;59975;47.646;18.318;2023-05-07T07:59:02;16.36;90.36
72106;SHT30;59975;47.646;18.318;2023-05-07T08:01:34;16.59;90.22
72106;SHT30;59975;47.646;18.318;2023-05-07T08:04:00;17.21;88.35
72106;SHT30;59975;47.646;18.318;2023-05-07T08:06:28;17.26;86.03
72106;SHT30;59975;47.646;18.318;2023-05-07T08:08:53;17.48;86.47
72106;SHT30;59975;47.646;18.318;2023-05-07T08:11:19;17.55;86.22
72106;SHT30;59975;47.646;18.318;2023-05-07T08:13:45;17.94;83.41
72106;SHT30;59975;47.646;18.318;2023-05-07T08:16:11;18.11;83.23
72106;SHT30;59975;47.646;18.318;2023-05-07T08:18:36;18.64;81.95
72106;SHT30;59975;47.646;18.318;2023-05-07T08:21:02;18.62;81.10
72106;SHT30;59975;47.646;18.318;2023-05-07T08:23:27;18.81;80.76
72106;SHT30;59975;47.646;18.318;2023-05-07T08:25:53;18.79;80.20
72106;SHT30;59975;47.646;18.318;2023-05-07T08:28:18;19.47;77.70
72106;SHT30;59975;47.646;18.318;2023-05-07T08:30:51;19.39;78.29
72106;SHT30;59975;47.646;18.318;2023-05-07T08:33:16;19.26;77.69
72106;SHT30;59975;47.646;18.318;2023-05-07T08:35:42;18.74;79.25
72106;SHT30;59975;47.646;18.318;2023-05-07T08:38:07;18.48;81.23
72106;SHT30;59975;47.646;18.318;2023-05-07T08:40:37;18.54;80.72
72106;SHT30;59975;47.646;18.318;2023-05-07T08:43:05;18.23;81.95
72106;SHT30;59975;47.646;18.318;2023-05-07T08:45:33;18.40;82.01
72106;SHT30;59975;47.646;18.318;2023-05-07T08:48:02;18.34;82.65
72106;SHT30;59975;47.646;18.318;2023-05-07T08:50:28;18.41;83.53
72106;SHT30;59975;47.646;18.318;2023-05-07T08:52:54;18.55;81.46
72106;SHT30;59975;47.646;18.318;2023-05-07T08:55:23;18.55;82.06
72106;SHT30;59975;47.646;18.318;2023-05-07T08:57:49;18.52;82.07
72106;SHT30;59975;47.646;18.318;2023-05-07T09:00:15;18.51;82.09
72106;SHT30;59975;47.646;18.318;2023-05-07T09:02:41;18.41;82.27
72106;SHT30;59975;47.646;18.318;2023-05-07T09:05:07;18.41;81.03
72106;SHT30;59975;47.646;18.318;2023-05-07T09:07:32;18.54;80.91
72106;SHT30;59975;47.646;18.318;2023-05-07T09:09:58;18.57;81.24
72106;SHT30;59975;47.646;18.318;2023-05-07T09:12:24;19.01;80.92
72106;SHT30;59975;47.646;18.318;2023-05-07T09:14:50;19.30;79.88
72106;SHT30;59975;47.646;18.318;2023-05-07T09:17:16;19.84;79.10
72106;SHT30;59975;47.646;18.318;2023-05-07T09:19:44;20.44;75.54
72106;SHT30;59975;47.646;18.318;2023-05-07T09:22:09;20.81;75.19
72106;SHT30;59975;47.646;18.318;2023-05-07T09:24:35;20.61;72.93
72106;SHT30;59975;47.646;18.318;2023-05-07T09:27:03;20.53;72.61
72106;SHT30;59975;47.646;18.318;2023-05-07T09:29:29;20.68;72.61
72106;SHT30;59975;47.646;18.318;2023-05-07T09:32:03;20.22;75.37
72106;SHT30;59975;47.646;18.318;2023-05-07T09:34:30;20.47;73.63
72106;SHT30;59975;47.646;18.318;2023-05-07T09:36:57;20.56;74.44
72106;SHT30;59975;47.646;18.318;2023-05-07T09:39:24;20.59;72.78
72106;SHT30;59975;47.646;18.318;2023-05-07T09:41:49;20.58;73.43
72106;SHT30;59975;47.646;18.318;2023-05-07T09:44:18;20.38;74.15
72106;SHT30;59975;47.646;18.318;2023-05-07T09:46:44;20.68;75.96
72106;SHT30;59975;47.646;18.318;2023-05-07T09:49:20;20.96;74.85
72106;SHT30;59975;47.646;18.318;2023-05-07T09:51:51;20.82;73.70
72106;SHT30;59975;47.646;18.318;2023-05-07T09:54:18;20.85;72.41
72106;SHT30;59975;47.646;18.318;2023-05-07T09:56:44;21.29;70.61
72106;SHT30;59975;47.646;18.318;2023-05-07T09:59:13;21.74;70.84
72106;SHT30;59975;47.646;18.318;2023-05-07T10:01:40;21.78;70.52
72106;SHT30;59975;47.646;18.318;2023-05-07T10:04:06;21.78;70.37
72106;SHT30;59975;47.646;18.318;2023-05-07T10:06:34;21.83;71.73
72106;SHT30;59975;47.646;18.318;2023-05-07T10:09:00;21.57;72.03
72106;SHT30;59975;47.646;18.318;2023-05-07T10:11:26;21.43;70.48
72106;SHT30;59975;47.646;18.318;2023-05-07T10:13:52;21.42;70.67
72106;SHT30;59975;47.646;18.318;2023-05-07T10:16:19;21.30;71.52
72106;SHT30;59975;47.646;18.318;2023-05-07T10:18:45;21.54;71.05
72106;SHT30;59975;47.646;18.318;2023-05-07T10:21:18;21.95;70.23
72106;SHT30;59975;47.646;18.318;2023-05-07T10:23:58;22.42;69.26
72106;SHT30;59975;47.646;18.318;2023-05-07T10:26:25;22.73;69.09
72106;SHT30;59975;47.646;18.318;2023-05-07T10:29:10;22.35;65.35
72106;SHT30;59975;47.646;18.318;2023-05-07T10:32:04;22.44;68.61
72106;SHT30;59975;47.646;18.318;2023-05-07T10:34:41;22.60;68.49
72106;SHT30;59975;47.646;18.318;2023-05-07T10:37:09;22.79;64.83
72106;SHT30;59975;47.646;18.318;2023-05-07T10:39:35;21.42;62.11
72106;SHT30;59975;47.646;18.318;2023-05-07T10:42:09;20.82;64.32
72106;SHT30;59975;47.646;18.318;2023-05-07T10:44:35;20.92;64.52
72106;SHT30;59975;47.646;18.318;2023-05-07T10:47:12;21.63;63.35
72106;SHT30;59975;47.646;18.318;2023-05-07T10:54:42;21.81;61.31
72106;SHT30;59975;47.646;18.318;2023-05-07T10:59:53;21.46;61.98
72106;SHT30;59975;47.646;18.318;2023-05-07T11:02:19;21.53;62.52
72106;SHT30;59975;47.646;18.318;2023-05-07T11:04:45;21.63;61.01
72106;SHT30;59975;47.646;18.318;2023-05-07T11:15:04;21.12;60.95
72106;SHT30;59975;47.646;18.318;2023-05-07T11:17:30;20.72;61.95
72106;SHT30;59975;47.646;18.318;2023-05-07T11:19:57;20.41;61.78
72106;SHT30;59975;47.646;18.318;2023-05-07T11:25:05;21.04;58.90
72106;SHT30;59975;47.646;18.318;2023-05-07T11:27:31;21.23;56.49
72106;SHT30;59975;47.646;18.318;2023-05-07T11:29:57;21.57;58.31
72106;SHT30;59975;47.646;18.318;2023-05-07T11:32:27;21.51;57.87
72106;SHT30;59975;47.646;18.318;2023-05-07T11:34:59;21.34;59.68
72106;SHT30;59975;47.646;18.318;2023-05-07T11:37:25;21.20;58.34
72106;SHT30;59975;47.646;18.318;2023-05-07T11:40:12;20.92;59.41
72106;SHT30;59975;47.646;18.318;2023-05-07T11:42:40;21.09;59.85
72106;SHT30;59975;47.646;18.318;2023-05-07T11:45:08;21.39;60.41
72106;SHT30;59975;47.646;18.318;2023-05-07T11:47:34;21.44;58.24
72106;SHT30;59975;47.646;18.318;2023-05-07T11:50:07;21.13;59.24
72106;SHT30;59975;47.646;18.318;2023-05-07T11:52:34;21.10;57.80
72106;SHT30;59975;47.646;18.318;2023-05-07T11:55:00;21.19;57.82
72106;SHT30;59975;47.646;18.318;2023-05-07T11:57:27;21.14;57.23
72106;SHT30;59975;47.646;18.318;2023-05-07T11:59:57;21.26;55.88
72106;SHT30;59975;47.646;18.318;2023-05-07T12:02:24;21.33;56.65
72106;SHT30;59975;47.646;18.318;2023-05-07T12:04:50;21.47;56.30
72106;SHT30;59975;47.646;18.318;2023-05-07T12:07:16;21.63;56.62
72106;SHT30;59975;47.646;18.318;2023-05-07T12:09:44;21.58;56.12
72106;SHT30;59975;47.646;18.318;2023-05-07T12:12:10;21.70;57.67
72106;SHT30;59975;47.646;18.318;2023-05-07T12:14:40;21.74;57.84
72106;SHT30;59975;47.646;18.318;2023-05-07T12:17:07;21.87;56.76
72106;SHT30;59975;47.646;18.318;2023-05-07T12:19:34;21.90;55.26
72106;SHT30;59975;47.646;18.318;2023-05-07T12:22:00;22.01;56.17
72106;SHT30;59975;47.646;18.318;2023-05-07T12:24:26;21.77;56.50
72106;SHT30;59975;47.646;18.318;2023-05-07T12:26:52;21.73;56.42
72106;SHT30;59975;47.646;18.318;2023-05-07T12:29:21;22.14;56.11
72106;SHT30;59975;47.646;18.318;2023-05-07T12:31:47;22.31;54.43
72106;SHT30;59975;47.646;18.318;2023-05-07T12:34:12;22.49;55.12
72106;SHT30;59975;47.646;18.318;2023-05-07T12:36:39;22.60;55.77
72106;SHT30;59975;47.646;18.318;2023-05-07T12:39:08;22.76;56.21
72106;SHT30;59975;47.646;18.318;2023-05-07T12:41:56;22.45;55.28
72106;SHT30;59975;47.646;18.318;2023-05-07T12:44:25;22.14;56.93
72106;SHT30;59975;47.646;18.318;2023-05-07T12:46:51;22.14;54.57
72106;SHT30;59975;47.646;18.318;2023-05-07T12:49:17;22.52;54.80
72106;SHT30;59975;47.646;18.318;2023-05-07T12:51:47;22.26;52.81
72106;SHT30;59975;47.646;18.318;2023-05-07T12:54:14;22.08;53.99
72106;SHT30;59975;47.646;18.318;2023-05-07T12:57:00;22.25;53.63
72106;SHT30;59975;47.646;18.318;2023-05-07T12:59:39;22.07;54.19
72106;SHT30;59975;47.646;18.318;2023-05-07T13:02:05;22.24;54.69
72106;SHT30;59975;47.646;18.318;2023-05-07T13:04:31;22.01;54.19
72106;SHT30;59975;47.646;18.318;2023-05-07T13:06:58;22.02;53.22
72106;SHT30;59975;47.646;18.318;2023-05-07T13:09:23;21.78;54.15
72106;SHT30;59975;47.646;18.318;2023-05-07T13:11:49;21.93;53.57
72106;SHT30;59975;47.646;18.318;2023-05-07T13:14:15;21.78;52.45
72106;SHT30;59975;47.646;18.318;2023-05-07T13:16:40;21.71;53.80
72106;SHT30;59975;47.646;18.318;2023-05-07T13:19:06;21.95;53.99
72106;SHT30;59975;47.646;18.318;2023-05-07T13:21:31;21.90;52.70
72106;SHT30;59975;47.646;18.318;2023-05-07T13:23:58;22.21;51.49
72106;SHT30;59975;47.646;18.318;2023-05-07T13:26:24;22.11;51.92
72106;SHT30;59975;47.646;18.318;2023-05-07T13:28:50;22.04;51.56
72106;SHT30;59975;47.646;18.318;2023-05-07T13:31:17;21.80;50.79
72106;SHT30;59975;47.646;18.318;2023-05-07T13:33:42;21.78;51.18
72106;SHT30;59975;47.646;18.318;2023-05-07T13:36:08;21.73;51.47
72106;SHT30;59975;47.646;18.318;2023-05-07T13:38:34;21.60;51.96
72106;SHT30;59975;47.646;18.318;2023-05-07T13:41:00;21.54;51.85
72106;SHT30;59975;47.646;18.318;2023-05-07T13:43:25;21.55;52.83
72106;SHT30;59975;47.646;18.318;2023-05-07T13:45:51;21.77;53.54
72106;SHT30;59975;47.646;18.318;2023-05-07T13:48:16;21.65;52.98
72106;SHT30;59975;47.646;18.318;2023-05-07T13:50:42;21.51;53.24
72106;SHT30;59975;47.646;18.318;2023-05-07T13:53:08;21.53;54.19
72106;SHT30;59975;47.646;18.318;2023-05-07T13:55:33;21.49;53.82
72106;SHT30;59975;47.646;18.318;2023-05-07T13:58:00;21.24;54.69
72106;SHT30;59975;47.646;18.318;2023-05-07T14:00:27;21.34;54.37
72106;SHT30;59975;47.646;18.318;2023-05-07T14:02:54;21.49;54.65
72106;SHT30;59975;47.646;18.318;2023-05-07T14:05:20;21.71;54.23
72106;SHT30;59975;47.646;18.318;2023-05-07T14:07:45;21.58;53.98
72106;SHT30;59975;47.646;18.318;2023-05-07T14:10:12;21.71;54.13
72106;SHT30;59975;47.646;18.318;2023-05-07T14:12:38;21.58;53.45
72106;SHT30;59975;47.646;18.318;2023-05-07T14:15:04;21.65;53.12
72106;SHT30;59975;47.646;18.318;2023-05-07T14:17:29;21.46;53.93
72106;SHT30;59975;47.646;18.318;2023-05-07T14:19:55;21.04;55.34
72106;SHT30;59975;47.646;18.318;2023-05-07T14:22:21;21.29;54.41
72106;SHT30;59975;47.646;18.318;2023-05-07T14:24:50;21.29;55.51
72106;SHT30;59975;47.646;18.318;2023-05-07T14:27:16;21.57;54.31
72106;SHT30;59975;47.646;18.318;2023-05-07T14:29:41;21.32;53.40
72106;SHT30;59975;47.646;18.318;2023-05-07T14:32:07;21.46;53.00
72106;SHT30;59975;47.646;18.318;2023-05-07T14:34:33;21.67;53.59
72106;SHT30;59975;47.646;18.318;2023-05-07T14:36:59;21.73;53.55
72106;SHT30;59975;47.646;18.318;2023-05-07T14:39:25;21.81;53.34
72106;SHT30;59975;47.646;18.318;2023-05-07T14:41:51;21.81;52.22
72106;SHT30;59975;47.646;18.318;2023-05-07T14:44:17;21.90;52.94
72106;SHT30;59975;47.646;18.318;2023-05-07T14:46:42;21.81;53.08
72106;SHT30;59975;47.646;18.318;2023-05-07T14:49:08;21.68;51.99
72106;SHT30;59975;47.646;18.318;2023-05-07T14:51:41;21.81;52.41
72106;SHT30;59975;47.646;18.318;2023-05-07T14:54:07;22.19;51.82
72106;SHT30;59975;47.646;18.318;2023-05-07T14:56:33;21.67;52.00
72106;SHT30;59975;47.646;18.318;2023-05-07T14:59:00;21.78;51.52
72106;SHT30;59975;47.646;18.318;2023-05-07T15:01:26;21.46;52.25
72106;SHT30;59975;47.646;18.318;2023-05-07T15:03:51;21.26;52.60
72106;SHT30;59975;47.646;18.318;2023-05-07T15:06:17;21.44;52.35
72106;SHT30;59975;47.646;18.318;2023-05-07T15:08:42;21.22;52.94
72106;SHT30;59975;47.646;18.318;2023-05-07T15:11:08;21.57;52.40
72106;SHT30;59975;47.646;18.318;2023-05-07T15:13:33;21.74;52.24
72106;SHT30;59975;47.646;18.318;2023-05-07T15:15:58;21.70;50.76
72106;SHT30;59975;47.646;18.318;2023-05-07T15:18:24;21.39;52.33
72106;SHT30;59975;47.646;18.318;2023-05-07T15:20:49;21.67;51.44
72106;SHT30;59975;47.646;18.318;2023-05-07T15:23:15;21.85;50.57
72106;SHT30;59975;47.646;18.318;2023-05-07T15:25:41;22.26;49.16
72106;SHT30;59975;47.646;18.318;2023-05-07T15:28:06;22.29;48.81
72106;SHT30;59975;47.646;18.318;2023-05-07T15:30:32;22.34;48.59